Terminal Aerodrome Forecast
Issued by NWS Los Angeles, CA

Home | Current Version | Previous Version | Text Only | Print | Product List | Glossary On
Versions: 1 2 3 4 5 6 7 8 9 10 11 12 13 14 15 16 17 18 19
000
FTUS46 KLOX 281300 AAA
TAFSMX
TAF AMD
KSMX 281311Z 2813/2912 VRB03KT 4SM BR OVC004
     FM281600 30006KT P6SM SKC
     FM282000 30012G20KT P6SM SKC
     FM290300 31007KT P6SM SKC
     FM290500 VRB03KT P6SM BKN005=

USA.gov is the U.S. government's official web portal to all federal, state and local government web resources and services.